Time,TemperatureF,DewpointF,PressureIn,WindDirection,WindDirectionDegrees,WindSpeedMPH,WindSpeedGustMPH,Humidity,HourlyPrecipIn,Conditions,Clouds,dailyrainin,SoftwareType,DateUTC
2013-07-01 00:01:00,73.2,49.4,29.47,SSW,196,0.0,0.0,43,0.00,,CLR,0.00,VWS V14.01,2013-07-01 04:01:00,
2013-07-01 00:06:00,73.2,49.4,29.47,SSW,196,0.0,0.0,43,0.00,,SCT036,0.00,VWS V14.01,2013-07-01 04:06:00,
2013-07-01 00:11:00,73.2,49.4,29.47,WNW,284,0.0,0.0,43,0.00,,SCT036,0.00,VWS V14.01,2013-07-01 04:11:00,
2013-07-01 00:16:00,73.2,49.4,29.47,WNW,284,0.0,0.0,43,0.00,,SCT036,0.00,VWS V14.01,2013-07-01 04:16:00,
2013-07-01 00:21:00,73.2,49.4,29.47,South,183,0.0,0.0,43,0.00,,BKN036,0.00,VWS V14.01,2013-07-01 04:21:00,
2013-07-01 00:26:00,73.2,49.4,29.47,South,183,0.0,0.0,43,0.00,,BKN036,0.00,VWS V14.01,2013-07-01 04:26:00,
2013-07-01 00:31:00,73.2,49.4,29.47,South,183,0.0,0.0,43,0.00,,BKN036,0.00,VWS V14.01,2013-07-01 04:31:00,
2013-07-01 00:37:00,73.0,49.2,29.47,South,183,0.0,0.0,43,0.00,,BKN036,0.00,VWS V14.01,2013-07-01 04:37:00,
2013-07-01 00:42:00,73.2,49.4,29.47,South,183,0.0,0.0,43,0.00,,BKN036,0.04,VWS V14.01,2013-07-01 04:42:00,
2013-07-01 00:47:00,73.0,49.2,29.47,South,183,0.0,0.0,43,0.00,,BKN036,0.00,VWS V14.01,2013-07-01 04:47:00,
2013-07-01 00:52:00,73.0,49.2,29.47,South,183,0.0,0.0,43,0.00,,BKN022,0.00,VWS V14.01,2013-07-01 04:52:00,
2013-07-01 00:57:00,73.0,49.2,29.47,South,183,0.0,0.0,43,0.00,,BKN022,0.00,VWS V14.01,2013-07-01 04:57:00,
2013-07-01 07:14:00,72.5,52.3,29.50,South,174,0.0,0.0,49,0.00,,BKN022,0.00,VWS V14.01,2013-07-01 11:14:00,
2013-07-01 07:19:00,72.5,52.3,29.50,South,174,0.0,0.0,49,0.00,,BKN022,0.00,VWS V14.01,2013-07-01 11:19:00,
2013-07-01 07:24:00,72.5,52.8,29.50,South,174,0.0,0.0,50,0.00,,OVC008,0.00,VWS V14.01,2013-07-01 11:24:00,
2013-07-01 07:29:00,72.7,53.0,29.50,South,174,0.0,0.0,50,0.00,,OVC008,0.00,VWS V14.01,2013-07-01 11:29:00,
2013-07-01 07:34:00,72.7,53.5,29.50,South,174,0.0,0.0,51,0.00,,OVC008,0.00,VWS V14.01,2013-07-01 11:34:00,
2013-07-01 07:39:00,72.9,53.7,29.50,North,353,0.0,0.0,51,0.00,,OVC008,0.00,VWS V14.01,2013-07-01 11:39:00,
2013-07-01 07:44:00,72.9,53.7,29.50,North,353,0.0,0.0,51,0.00,,OVC008,0.00,VWS V14.01,2013-07-01 11:44:00,
2013-07-01 07:49:00,72.9,53.7,29.50,North,353,0.0,0.0,51,0.00,,OVC008,0.00,VWS V14.01,2013-07-01 11:49:00,
2013-07-01 07:54:00,72.9,54.2,29.50,North,353,0.0,0.0,52,0.00,,OVC008,0.00,VWS V14.01,2013-07-01 11:54:00,
2013-07-01 07:59:00,73.0,54.4,29.50,North,353,0.0,0.0,52,0.00,,OVC008,0.00,VWS V14.01,2013-07-01 11:59:00,
2013-07-01 08:04:00,73.0,54.9,29.50,North,353,0.0,0.0,53,0.00,,OVC008,0.00,VWS V14.01,2013-07-01 12:04:00,
2013-07-01 08:09:00,73.0,54.9,29.50,North,353,0.0,0.0,53,0.00,,OVC008,0.00,VWS V14.01,2013-07-01 12:09:00,
2013-07-01 08:14:00,73.0,54.4,29.50,NNW,333,4.0,5.8,52,0.00,,OVC010,0.00,VWS V14.01,2013-07-01 12:14:00,
2013-07-01 08:19:00,72.0,48.9,29.50,NNW,334,0.0,3.6,44,0.00,,OVC010,0.00,VWS V14.01,2013-07-01 12:19:00,
2013-07-01 08:24:00,71.8,48.1,29.50,NNW,339,3.1,3.6,43,0.00,,OVC010,0.00,VWS V14.01,2013-07-01 12:24:00,
2013-07-01 08:29:00,71.4,48.4,29.50,North,0,0.0,0.0,44,0.00,,OVC010,0.00,VWS V14.01,2013-07-01 12:29:00,
2013-07-01 08:34:00,71.2,48.2,29.50,North,0,0.0,0.0,44,0.00,,OVC010,0.00,VWS V14.01,2013-07-01 12:34:00,
2013-07-01 08:39:00,71.1,48.7,29.50,North,0,0.0,0.0,45,0.00,,OVC010,0.00,VWS V14.01,2013-07-01 12:39:00,
2013-07-01 08:44:00,71.1,48.7,29.50,North,0,0.0,0.0,45,0.00,,OVC010,0.00,VWS V14.01,2013-07-01 12:44:00,
2013-07-01 08:49:00,70.9,49.1,29.50,North,0,0.0,0.0,46,0.04,,OVC010,0.04,VWS V14.01,2013-07-01 12:49:00,
2013-07-01 08:54:00,70.9,49.1,29.50,North,0,0.0,0.0,46,0.04,,OVC011,0.04,VWS V14.01,2013-07-01 12:54:00,
2013-07-01 09:00:00,70.7,49.5,29.50,North,0,0.0,0.0,47,0.00,,OVC011,0.04,VWS V14.01,2013-07-01 13:00:00,
2013-07-01 09:05:00,70.7,50.1,29.50,North,0,0.0,0.0,48,0.04,,-RA,0.04,VWS V14.01,2013-07-01 13:05:00,
2013-07-01 09:10:00,70.7,51.7,29.50,NW,315,2.2,2.7,51,0.04,,-RA,0.04,VWS V14.01,2013-07-01 13:10:00,
2013-07-01 09:15:00,70.7,53.3,29.50,WNW,300,0.0,0.0,54,0.04,,-RA,0.04,VWS V14.01,2013-07-01 13:15:00,
2013-07-01 09:20:00,70.7,54.7,29.50,WNW,301,0.0,0.0,57,0.08,,-RA,0.08,VWS V14.01,2013-07-01 13:20:00,
2013-07-01 09:25:00,70.7,54.7,29.50,WNW,301,0.0,0.0,57,0.12,,-RA,0.12,VWS V14.01,2013-07-01 13:25:00,
2013-07-01 09:30:00,70.7,55.7,29.50,WNW,301,0.0,0.0,59,0.28,,-RA,0.28,VWS V14.01,2013-07-01 13:30:00,
2013-07-01 09:35:00,70.5,56.0,29.50,WNW,298,0.0,0.0,60,0.35,,-RA,0.35,VWS V14.01,2013-07-01 13:35:00,
2013-07-01 09:41:00,70.3,55.8,29.50,WNW,298,0.0,0.0,60,0.43,, +RA,0.04,VWS V14.01,2013-07-01 13:41:00,
2013-07-01 09:46:00,70.3,55.8,29.50,WNW,298,0.0,0.0,60,0.51,, +RA,0.51,VWS V14.01,2013-07-01 13:46:00,
2013-07-01 09:51:00,70.3,56.3,29.50,WNW,298,0.0,0.0,61,0.51,, +RA,0.04,VWS V14.01,2013-07-01 13:51:00,
2013-07-01 09:56:00,70.3,56.3,29.50,WNW,298,0.0,0.0,61,0.63,, +RA,0.67,VWS V14.01,2013-07-01 13:56:00,
2013-07-01 10:01:00,70.3,56.3,29.50,WNW,298,0.0,0.0,61,0.63,, +RA,0.67,VWS V14.01,2013-07-01 14:01:00,
2013-07-01 10:06:00,70.3,56.7,29.50,WNW,298,0.0,0.0,62,0.67,,RA,0.71,VWS V14.01,2013-07-01 14:06:00,
2013-07-01 10:11:00,70.3,56.7,29.50,WNW,298,0.0,0.0,62,0.67,,RA,0.71,VWS V14.01,2013-07-01 14:11:00,
2013-07-01 10:16:00,70.3,57.2,29.50,WNW,298,0.0,0.0,63,0.67,,RA,0.71,VWS V14.01,2013-07-01 14:16:00,
2013-07-01 10:21:00,70.7,57.9,29.50,WNW,298,0.0,0.0,64,0.67,,RA,0.75,VWS V14.01,2013-07-01 14:21:00,
2013-07-01 10:26:00,70.9,58.1,29.53,WNW,298,0.0,0.0,64,0.63,,RA,0.75,VWS V14.01,2013-07-01 14:26:00,
2013-07-01 10:31:00,70.9,58.1,29.53,WNW,298,0.0,0.0,64,0.51,,RA,0.75,VWS V14.01,2013-07-01 14:31:00,
2013-07-01 10:36:00,71.1,58.3,29.53,WNW,298,0.0,0.0,64,0.39,,RA,0.75,VWS V14.01,2013-07-01 14:36:00,
2013-07-01 10:41:00,71.1,58.3,29.50,WNW,298,0.0,0.0,64,0.31,,RA,0.75,VWS V14.01,2013-07-01 14:41:00,
2013-07-01 10:46:00,71.1,58.3,29.50,WNW,298,0.0,0.0,64,0.24,,RA,0.75,VWS V14.01,2013-07-01 14:46:00,
2013-07-01 10:51:00,71.1,58.7,29.50,WNW,298,0.0,0.0,65,0.20,,RA,0.75,VWS V14.01,2013-07-01 14:51:00,
2013-07-01 10:56:00,71.1,58.7,29.53,WNW,298,0.0,0.0,65,0.08,,RA,0.04,VWS V14.01,2013-07-01 14:56:00,
2013-07-01 11:01:00,71.2,58.9,29.53,WNW,298,0.0,0.0,65,0.08,,RA,0.75,VWS V14.01,2013-07-01 15:01:00,
2013-07-01 11:06:00,71.1,58.7,29.53,WNW,298,0.0,0.0,65,0.04,,-RA,0.04,VWS V14.01,2013-07-01 15:06:00,
2013-07-01 11:11:00,71.1,58.7,29.53,WNW,298,0.0,0.0,65,0.04,,-RA,0.75,VWS V14.01,2013-07-01 15:11:00,
2013-07-01 11:16:00,71.1,58.7,29.53,WNW,298,0.0,0.0,65,0.04,,-RA,0.04,VWS V14.01,2013-07-01 15:16:00,
2013-07-01 11:21:00,71.2,59.3,29.53,WNW,298,0.0,0.0,66,0.00,,-RA,0.75,VWS V14.01,2013-07-01 15:21:00,
2013-07-01 11:26:00,71.6,59.7,29.53,WNW,298,0.0,0.0,66,0.00,,-RA,0.75,VWS V14.01,2013-07-01 15:26:00,
2013-07-01 11:31:00,72.0,60.4,29.53,WNW,298,0.0,0.0,67,0.00,,-RA,0.75,VWS V14.01,2013-07-01 15:31:00,
2013-07-01 11:36:00,72.0,60.0,29.53,WNW,298,0.0,0.0,66,0.00,,-RA,0.75,VWS V14.01,2013-07-01 15:36:00,
2013-07-01 11:41:00,72.0,60.0,29.53,WNW,298,0.0,0.0,66,0.00,,-RA,0.75,VWS V14.01,2013-07-01 15:41:00,
2013-07-01 11:46:00,72.0,59.6,29.53,WNW,298,0.0,0.0,65,0.00,,-RA,0.75,VWS V14.01,2013-07-01 15:46:00,
2013-07-01 11:51:00,72.1,59.7,29.53,WNW,298,0.0,0.0,65,0.00,,-RA,0.75,VWS V14.01,2013-07-01 15:51:00,
2013-07-01 11:56:00,72.3,60.3,29.53,WNW,298,0.0,0.0,66,0.00,,-RA,0.75,VWS V14.01,2013-07-01 15:56:00,
2013-07-01 12:01:00,72.5,60.5,29.53,WNW,298,0.0,0.0,66,0.00,,-RA,0.75,VWS V14.01,2013-07-01 16:01:00,
2013-07-01 12:06:00,72.9,60.8,29.53,WNW,298,0.0,0.0,66,0.00,,-RA,0.75,VWS V14.01,2013-07-01 16:06:00,
2013-07-01 12:11:00,72.9,60.4,29.53,WNW,298,0.0,0.0,65,0.00,,OVC070,0.75,VWS V14.01,2013-07-01 16:11:00,
2013-07-01 12:16:00,73.0,60.6,29.53,WNW,298,0.0,0.0,65,0.00,,OVC070,0.75,VWS V14.01,2013-07-01 16:16:00,
2013-07-01 12:21:00,73.2,60.8,29.53,WNW,298,0.0,0.0,65,0.00,,OVC070,0.75,VWS V14.01,2013-07-01 16:21:00,
2013-07-01 12:26:00,73.4,60.5,29.53,WNW,298,0.0,0.0,64,0.00,,OVC070,0.75,VWS V14.01,2013-07-01 16:26:00,
2013-07-01 12:31:00,73.4,60.5,29.53,North,1,0.0,0.0,64,0.00,,OVC070,0.75,VWS V14.01,2013-07-01 16:31:00,
2013-07-01 12:36:00,73.6,60.2,29.53,NW,323,0.0,0.0,63,0.00,,OVC070,0.75,VWS V14.01,2013-07-01 16:36:00,
2013-07-01 12:41:00,73.9,60.6,29.53,NW,323,0.0,0.0,63,0.00,,OVC070,0.75,VWS V14.01,2013-07-01 16:41:00,
2013-07-01 12:46:00,74.3,60.5,29.53,WNW,303,0.0,0.0,62,0.00,,OVC070,0.75,VWS V14.01,2013-07-01 16:46:00,
2013-07-01 12:51:00,74.8,61.4,29.53,SE,142,3.6,3.6,63,0.00,,OVC070,0.75,VWS V14.01,2013-07-01 16:51:00,
2013-07-01 12:56:00,75.6,61.2,29.53,SE,142,0.0,0.0,61,0.00,,OVC070,0.75,VWS V14.01,2013-07-01 16:56:00,
2013-07-01 13:01:00,75.6,59.3,29.53,SSE,151,0.0,0.0,57,0.00,,OVC070,0.75,VWS V14.01,2013-07-01 17:01:00,
2013-07-01 13:06:00,75.6,58.3,29.53,SSE,151,0.0,0.0,55,0.00,,-RA,0.75,VWS V14.01,2013-07-01 17:06:00,
2013-07-01 13:11:00,75.4,56.5,29.53,SSE,151,0.0,0.0,52,0.00,,-RA,0.75,VWS V14.01,2013-07-01 17:11:00,
2013-07-01 13:16:00,75.2,54.8,29.53,South,173,0.0,2.2,49,0.00,,-RA,0.75,VWS V14.01,2013-07-01 17:16:00,
2013-07-01 13:21:00,75.0,54.0,29.53,SE,145,0.0,0.0,48,0.00,,-RA,0.75,VWS V14.01,2013-07-01 17:21:00,
2013-07-01 13:26:00,74.8,53.3,29.53,SE,145,0.0,0.0,47,0.00,,-RA,0.75,VWS V14.01,2013-07-01 17:26:00,
2013-07-01 13:31:00,75.0,52.9,29.53,SSE,150,0.0,0.0,46,0.00,,-RA,0.75,VWS V14.01,2013-07-01 17:31:00,
2013-07-01 13:36:00,75.2,52.4,29.53,SSE,150,0.0,0.0,45,0.00,,-RA,0.75,VWS V14.01,2013-07-01 17:36:00,
2013-07-01 13:41:00,75.4,52.6,29.53,SE,143,3.1,3.1,45,0.00,,-RA,0.75,VWS V14.01,2013-07-01 17:41:00,
2013-07-01 13:46:00,75.2,51.2,29.53,South,178,0.0,0.0,43,0.00,,-RA,0.75,VWS V14.01,2013-07-01 17:46:00,
2013-07-01 13:51:00,75.2,51.2,29.53,East,82,0.0,0.0,43,0.00,,-RA,0.75,VWS V14.01,2013-07-01 17:51:00,
2013-07-01 13:56:00,75.2,51.2,29.53,South,187,0.0,2.7,43,0.00,,-RA,0.75,VWS V14.01,2013-07-01 17:56:00,
2013-07-01 14:01:00,75.4,51.3,29.53,South,187,0.0,0.0,43,0.00,,-RA,0.75,VWS V14.01,2013-07-01 18:01:00,
2013-07-01 14:06:00,75.4,51.3,29.53,SE,145,0.0,0.0,43,0.00,,-RA,0.75,VWS V14.01,2013-07-01 18:06:00,
2013-07-01 14:11:00,75.4,51.3,29.53,SE,145,0.0,0.0,43,0.00,,-RA,0.75,VWS V14.01,2013-07-01 18:11:00,
2013-07-01 14:16:00,75.6,51.5,29.53,SE,133,0.0,0.0,43,0.00,,-RA,0.75,VWS V14.01,2013-07-01 18:16:00,
2013-07-01 14:21:00,75.7,51.7,29.53,SE,133,0.0,0.0,43,0.00,,-RA,0.75,VWS V14.01,2013-07-01 18:21:00,
2013-07-01 14:26:00,75.9,51.8,29.53,SE,133,0.0,0.0,43,0.00,,-RA,0.75,VWS V14.01,2013-07-01 18:26:00,
2013-07-01 14:31:00,76.1,52.0,29.53,SE,133,0.0,0.0,43,0.00,,-RA,0.75,VWS V14.01,2013-07-01 18:31:00,
2013-07-01 14:36:00,75.9,51.8,29.53,SE,133,0.0,0.0,43,0.00,,-RA,0.75,VWS V14.01,2013-07-01 18:36:00,
2013-07-01 14:41:00,75.9,51.8,29.53,SE,133,0.0,0.0,43,0.00,,-RA,0.75,VWS V14.01,2013-07-01 18:41:00,
2013-07-01 14:46:00,75.7,51.0,29.53,SE,133,0.0,0.0,42,0.00,,-RA,0.75,VWS V14.01,2013-07-01 18:46:00,
2013-07-01 14:51:00,75.7,51.0,29.53,North,0,0.0,2.7,42,0.00,,RA,0.75,VWS V14.01,2013-07-01 18:51:00,
2013-07-01 14:56:00,75.7,51.7,29.53,South,174,0.0,0.0,43,0.00,,RA,0.75,VWS V14.01,2013-07-01 18:56:00,
2013-07-01 15:01:00,75.6,50.9,29.53,South,174,0.0,0.0,42,0.00,,RA,0.75,VWS V14.01,2013-07-01 19:01:00,
2013-07-01 15:06:00,75.6,50.9,29.53,NW,319,0.0,0.0,42,0.00,,-RA,0.75,VWS V14.01,2013-07-01 19:06:00,
2013-07-01 15:11:00,75.4,51.3,29.53,WNW,292,0.0,0.0,43,0.04,,-RA,0.79,VWS V14.01,2013-07-01 19:11:00,
2013-07-01 15:16:00,75.0,51.0,29.53,SE,145,0.0,0.0,43,0.04,,-RA,0.79,VWS V14.01,2013-07-01 19:16:00,
2013-07-01 15:21:00,74.8,51.5,29.53,SSE,155,3.1,3.1,44,0.04,,-RA,0.79,VWS V14.01,2013-07-01 19:21:00,
2013-07-01 15:26:00,74.5,51.2,29.53,SE,136,0.0,4.9,44,0.08,,-RA,0.83,VWS V14.01,2013-07-01 19:26:00,
2013-07-01 15:31:00,74.3,51.6,29.53,SSE,151,0.0,3.1,45,0.08,,-RA,0.83,VWS V14.01,2013-07-01 19:31:00,
2013-07-01 15:36:00,74.3,52.2,29.53,SSE,151,0.0,0.0,46,0.08,,-RA,0.83,VWS V14.01,2013-07-01 19:36:00,
2013-07-01 15:41:00,74.3,52.8,29.53,SSE,151,0.0,0.0,47,0.08,,-RA,0.83,VWS V14.01,2013-07-01 19:41:00,
2013-07-01 15:46:00,74.3,52.8,29.53,SSE,149,0.0,0.0,47,0.08,,-RA,0.83,VWS V14.01,2013-07-01 19:46:00,
2013-07-01 15:51:00,74.3,53.4,29.53,SSE,163,2.7,3.1,48,0.08,,-RA,0.83,VWS V14.01,2013-07-01 19:51:00,
2013-07-01 15:56:00,74.3,53.4,29.53,SE,135,0.0,2.2,48,0.08,,-RA,0.83,VWS V14.01,2013-07-01 19:56:00,
2013-07-01 16:01:00,74.5,54.1,29.53,SSE,157,0.0,2.2,49,0.08,,-RA,0.83,VWS V14.01,2013-07-01 20:01:00,
2013-07-01 16:06:00,74.5,54.1,29.53,SSE,151,0.0,3.6,49,0.08,,-RA,0.83,VWS V14.01,2013-07-01 20:06:00,
2013-07-01 16:11:00,74.7,54.8,29.53,North,353,0.0,0.0,50,0.04,,-RA,0.83,VWS V14.01,2013-07-01 20:11:00,
2013-07-01 16:16:00,74.7,54.8,29.53,SE,139,0.0,0.0,50,0.04,,-RA,0.83,VWS V14.01,2013-07-01 20:16:00,
2013-07-01 16:21:00,74.7,54.8,29.53,SE,135,2.2,4.0,50,0.04,,-RA,0.83,VWS V14.01,2013-07-01 20:21:00,
2013-07-01 16:26:00,74.7,54.8,29.53,NNW,339,0.0,0.0,50,0.00,,-RA,0.83,VWS V14.01,2013-07-01 20:26:00,
2013-07-01 16:32:00,74.7,54.8,29.53,NNW,339,0.0,0.0,50,0.00,,-RA,0.83,VWS V14.01,2013-07-01 20:32:00,
2013-07-01 16:37:00,74.5,54.6,29.53,SSE,150,0.0,0.0,50,0.00,,-RA,0.83,VWS V14.01,2013-07-01 20:37:00,
2013-07-01 16:42:00,74.5,55.2,29.53,SE,136,0.0,0.0,51,0.00,,-RA,0.83,VWS V14.01,2013-07-01 20:42:00,
2013-07-01 16:47:00,74.5,55.2,29.53,SSE,161,0.0,0.0,51,0.00,,-RA,0.83,VWS V14.01,2013-07-01 20:47:00,
2013-07-01 16:52:00,74.5,55.2,29.53,SSE,150,0.0,0.0,51,0.00,,OVC036,0.75,VWS V14.01,2013-07-01 20:52:00,
2013-07-01 16:57:00,74.5,55.7,29.53,SSW,206,0.0,0.0,52,0.00,,OVC036,0.83,VWS V14.01,2013-07-01 20:57:00,
2013-07-01 17:02:00,74.3,55.6,29.53,ESE,122,0.0,0.0,52,0.00,,OVC036,0.83,VWS V14.01,2013-07-01 21:02:00,
2013-07-01 17:07:00,74.3,55.6,29.53,ESE,112,2.7,2.7,52,0.00,,OVC045,0.75,VWS V14.01,2013-07-01 21:07:00,
2013-07-01 17:12:00,74.1,55.4,29.53,SSE,164,0.0,0.0,52,0.00,,OVC047,0.83,VWS V14.01,2013-07-01 21:12:00,
2013-07-01 17:17:00,74.1,55.4,29.53,South,178,0.0,0.0,52,0.00,,OVC047,0.83,VWS V14.01,2013-07-01 21:17:00,
2013-07-01 17:22:00,74.3,56.1,29.53,SSE,156,0.0,0.0,53,0.00,,OVC047,0.83,VWS V14.01,2013-07-01 21:22:00,
2013-07-01 17:27:00,74.3,56.1,29.53,SSE,153,2.7,2.7,53,0.00,,OVC047,0.83,VWS V14.01,2013-07-01 21:27:00,
2013-07-01 17:32:00,74.5,56.2,29.53,ESE,122,0.0,0.0,53,0.00,,OVC047,0.83,VWS V14.01,2013-07-01 21:32:00,
2013-07-01 17:37:00,74.5,56.8,29.53,SSE,148,0.0,0.0,54,0.00,,OVC047,0.83,VWS V14.01,2013-07-01 21:37:00,
2013-07-01 17:42:00,74.7,57.4,29.53,South,173,0.0,0.0,55,0.00,,OVC047,0.83,VWS V14.01,2013-07-01 21:42:00,
2013-07-01 17:47:00,74.8,57.6,29.53,SE,143,0.0,0.0,55,0.00,,OVC047,0.83,VWS V14.01,2013-07-01 21:47:00,
2013-07-01 17:52:00,74.8,57.6,29.53,SSE,148,0.0,2.7,55,0.00,,OVC047,0.83,VWS V14.01,2013-07-01 21:52:00,
2013-07-01 17:57:00,74.8,57.6,29.53,SE,146,2.7,2.7,55,0.00,,OVC047,0.83,VWS V14.01,2013-07-01 21:57:00,
2013-07-01 18:02:00,75.0,57.8,29.53,SSE,153,0.0,0.0,55,0.00,,OVC047,0.83,VWS V14.01,2013-07-01 22:02:00,
2013-07-01 18:07:00,75.4,58.1,29.53,NE,47,2.7,2.7,55,0.00,,SCT042,0.83,VWS V14.01,2013-07-01 22:07:00,
2013-07-01 18:12:00,75.6,57.8,29.53,SE,127,0.0,0.0,54,0.00,,SCT042,0.83,VWS V14.01,2013-07-01 22:12:00,
2013-07-01 18:17:00,75.7,57.4,29.53,SE,140,0.0,0.0,53,0.00,,SCT042,0.83,VWS V14.01,2013-07-01 22:17:00,
2013-07-01 18:22:00,75.9,56.5,29.53,SE,137,2.2,3.6,51,0.00,,SCT042,0.83,VWS V14.01,2013-07-01 22:22:00,
2013-07-01 18:27:00,76.1,55.0,29.53,SE,137,3.1,3.1,48,0.00,,SCT042,0.75,VWS V14.01,2013-07-01 22:27:00,
2013-07-01 18:32:00,75.7,52.9,29.53,WSW,238,3.6,5.8,45,0.00,,SCT042,0.83,VWS V14.01,2013-07-01 22:32:00,
2013-07-01 18:37:00,75.7,51.0,29.53,South,173,0.0,0.0,42,0.00,,SCT042,0.83,VWS V14.01,2013-07-01 22:37:00,
2013-07-01 18:42:00,75.7,51.0,29.53,SE,127,0.0,0.0,42,0.00,,SCT042,0.83,VWS V14.01,2013-07-01 22:42:00,
2013-07-01 18:47:00,75.7,50.4,29.53,NE,45,0.0,0.0,41,0.00,,SCT042,0.83,VWS V14.01,2013-07-01 22:47:00,
2013-07-01 18:52:00,75.6,50.2,29.53,SE,144,2.7,4.0,41,0.00,,SCT042,0.83,VWS V14.01,2013-07-01 22:52:00,
2013-07-01 18:57:00,75.4,48.7,29.53,ENE,59,0.0,0.0,39,0.00,,SCT042,0.83,VWS V14.01,2013-07-01 22:57:00,
2013-07-01 19:03:00,75.2,48.6,29.53,ESE,115,0.0,2.2,39,0.00,,BKN036,0.83,VWS V14.01,2013-07-01 23:03:00,
2013-07-01 19:08:00,75.0,49.8,29.53,SE,128,0.0,0.0,41,0.00,,BKN036,0.83,VWS V14.01,2013-07-01 23:08:00,
2013-07-01 19:13:00,74.8,49.6,29.53,SE,129,0.0,0.0,41,0.00,,BKN036,0.83,VWS V14.01,2013-07-01 23:13:00,
2013-07-01 19:18:00,74.7,50.1,29.53,SSE,158,0.0,2.2,42,0.00,,BKN036,0.83,VWS V14.01,2013-07-01 23:18:00,
2013-07-01 19:23:00,74.5,49.9,29.53,SSE,152,0.0,4.9,42,0.00,,BKN036,0.83,VWS V14.01,2013-07-01 23:23:00,
2013-07-01 19:28:00,74.5,49.9,29.53,SSE,148,0.0,0.0,42,0.00,,BKN036,0.83,VWS V14.01,2013-07-01 23:28:00,
2013-07-01 19:33:00,74.5,49.9,29.53,SSE,148,0.0,0.0,42,0.00,,BKN026,0.83,VWS V14.01,2013-07-01 23:33:00,
2013-07-01 19:38:00,74.5,49.9,29.56,SSE,148,0.0,0.0,42,0.00,,BKN026,0.83,VWS V14.01,2013-07-01 23:38:00,
2013-07-01 19:43:00,74.3,50.4,29.56,SSE,148,0.0,0.0,43,0.00,,BKN026,0.75,VWS V14.01,2013-07-01 23:43:00,
2013-07-01 19:48:00,74.3,50.4,29.56,SE,124,0.0,0.0,43,0.00,,BKN026,0.75,VWS V14.01,2013-07-01 23:48:00,
2013-07-01 19:53:00,74.3,50.4,29.56,SSE,162,0.0,0.0,43,0.00,,BKN034,0.83,VWS V14.01,2013-07-01 23:53:00,
2013-07-01 19:58:00,74.3,50.4,29.56,SE,125,0.0,3.1,43,0.00,,BKN034,0.83,VWS V14.01,2013-07-01 23:58:00,
2013-07-01 20:03:00,74.3,50.4,29.56,SE,131,0.0,0.0,43,0.00,,BKN036,0.83,VWS V14.01,2013-07-02 00:03:00,
2013-07-01 20:08:00,74.1,50.8,29.56,SE,131,0.0,0.0,44,0.00,,BKN036,0.83,VWS V14.01,2013-07-02 00:08:00,
2013-07-01 20:13:00,74.1,50.8,29.56,South,170,2.7,2.7,44,0.00,,BKN036,0.83,VWS V14.01,2013-07-02 00:13:00,
2013-07-01 20:18:00,74.1,50.8,29.56,South,170,0.0,0.0,44,0.00,,BKN036,0.83,VWS V14.01,2013-07-02 00:18:00,
2013-07-01 20:23:00,74.1,50.8,29.56,South,170,0.0,0.0,44,0.00,,BKN036,0.83,VWS V14.01,2013-07-02 00:23:00,
2013-07-01 20:28:00,73.9,50.7,29.56,South,170,0.0,0.0,44,0.00,,BKN036,0.83,VWS V14.01,2013-07-02 00:28:00,
2013-07-01 20:33:00,73.9,50.7,29.56,SE,133,0.0,2.2,44,0.00,,OVC050,0.83,VWS V14.01,2013-07-02 00:33:00,
2013-07-01 20:38:00,73.9,51.3,29.56,SSE,165,0.0,0.0,45,0.00,,OVC050,0.83,VWS V14.01,2013-07-02 00:38:00,
2013-07-01 20:43:00,73.9,51.3,29.56,SSE,163,0.0,0.0,45,0.00,,OVC055,0.83,VWS V14.01,2013-07-02 00:43:00,
2013-07-01 20:48:00,73.9,51.3,29.56,South,171,2.7,2.7,45,0.00,,OVC055,0.83,VWS V14.01,2013-07-02 00:48:00,
2013-07-01 20:53:00,73.9,51.9,29.56,SSE,157,0.0,0.0,46,0.00,,OVC055,0.83,VWS V14.01,2013-07-02 00:53:00,
2013-07-01 20:58:00,73.9,51.9,29.56,SSE,157,2.2,2.2,46,0.00,,OVC055,0.83,VWS V14.01,2013-07-02 00:58:00,
2013-07-01 21:03:00,73.9,51.9,29.56,SSE,157,0.0,0.0,46,0.00,,OVC041,0.83,VWS V14.01,2013-07-02 01:03:00,
2013-07-01 21:08:00,73.9,51.9,29.56,SSE,150,0.0,0.0,46,0.00,,OVC041,0.83,VWS V14.01,2013-07-02 01:08:00,
2013-07-01 21:13:00,73.8,52.3,29.56,SSE,158,0.0,2.7,47,0.00,,OVC041,0.83,VWS V14.01,2013-07-02 01:13:00,
2013-07-01 21:18:00,73.8,52.3,29.56,SSE,158,0.0,0.0,47,0.00,,OVC041,0.83,VWS V14.01,2013-07-02 01:18:00,
2013-07-01 21:23:00,73.8,52.3,29.56,SSE,157,0.0,0.0,47,0.00,,OVC037,0.83,VWS V14.01,2013-07-02 01:23:00,
2013-07-01 21:28:00,73.6,52.1,29.56,SE,133,0.0,3.6,47,0.00,,OVC037,0.83,VWS V14.01,2013-07-02 01:28:00,
2013-07-01 21:33:00,73.6,52.7,29.56,SSE,155,0.0,0.0,48,0.00,,OVC037,0.75,VWS V14.01,2013-07-02 01:33:00,
2013-07-01 21:38:00,73.6,52.7,29.59,SSE,155,0.0,0.0,48,0.00,,OVC037,0.83,VWS V14.01,2013-07-02 01:38:00,
2013-07-01 21:43:00,73.6,52.7,29.59,SE,125,0.0,0.0,48,0.00,,BKN030,0.83,VWS V14.01,2013-07-02 01:43:00,
2013-07-01 21:48:00,73.6,52.7,29.59,ENE,78,0.0,2.7,48,0.00,,BKN030,0.83,VWS V14.01,2013-07-02 01:48:00,
2013-07-01 21:53:00,73.6,53.3,29.59,ENE,78,0.0,0.0,49,0.00,,BKN047,0.83,VWS V14.01,2013-07-02 01:53:00,
2013-07-01 21:58:00,73.6,53.3,29.59,SSE,153,0.0,2.2,49,0.00,,BKN047,0.83,VWS V14.01,2013-07-02 01:58:00,
2013-07-01 22:03:00,73.4,53.1,29.59,SSE,148,0.0,0.0,49,0.00,,OVC047,0.83,VWS V14.01,2013-07-02 02:03:00,
2013-07-01 22:08:00,73.4,53.1,29.59,SE,144,0.0,0.0,49,0.00,,OVC047,0.83,VWS V14.01,2013-07-02 02:08:00,
2013-07-01 22:13:00,73.4,53.1,29.59,SE,143,0.0,0.0,49,0.00,,OVC047,0.83,VWS V14.01,2013-07-02 02:13:00,
2013-07-01 22:18:00,73.4,53.1,29.59,SE,143,0.0,0.0,49,0.00,,OVC047,0.83,VWS V14.01,2013-07-02 02:18:00,
2013-07-01 22:23:00,73.4,53.1,29.59,SSE,150,0.0,0.0,49,0.00,,OVC047,0.83,VWS V14.01,2013-07-02 02:23:00,
2013-07-01 22:28:00,73.4,53.7,29.59,SSE,154,0.0,0.0,50,0.00,,OVC047,0.83,VWS V14.01,2013-07-02 02:28:00,
2013-07-01 22:33:00,73.4,53.7,29.59,SSE,149,0.0,0.0,50,0.00,,OVC047,0.83,VWS V14.01,2013-07-02 02:33:00,
2013-07-01 22:38:00,73.4,53.7,29.59,SSE,156,0.0,0.0,50,0.00,,OVC047,0.83,VWS V14.01,2013-07-02 02:38:00,
2013-07-01 22:43:00,73.4,53.1,29.59,SE,131,0.0,0.0,49,0.00,,OVC047,0.83,VWS V14.01,2013-07-02 02:43:00,
2013-07-01 22:48:00,73.4,53.1,29.59,North,2,0.0,0.0,49,0.00,,OVC047,0.83,VWS V14.01,2013-07-02 02:48:00,
2013-07-01 22:53:00,73.2,53.5,29.59,South,183,0.0,0.0,50,0.00,,BKN024,0.83,VWS V14.01,2013-07-02 02:53:00,
2013-07-01 22:58:00,73.2,53.5,29.59,SW,218,0.0,0.0,50,0.00,,BKN024,0.83,VWS V14.01,2013-07-02 02:58:00,
2013-07-01 23:03:00,73.2,53.5,29.59,SSE,149,0.0,2.2,50,0.00,,OVC042,0.83,VWS V14.01,2013-07-02 03:03:00,
2013-07-01 23:08:00,73.2,53.5,29.59,SE,144,0.0,0.0,50,0.00,,OVC042,0.83,VWS V14.01,2013-07-02 03:08:00,
2013-07-01 23:13:00,73.2,53.5,29.59,SE,126,3.1,3.6,50,0.00,,BKN043,0.83,VWS V14.01,2013-07-02 03:13:00,
2013-07-01 23:18:00,73.2,53.5,29.59,South,183,0.0,2.7,50,0.00,,BKN043,0.83,VWS V14.01,2013-07-02 03:18:00,
2013-07-01 23:23:00,73.0,53.3,29.59,SE,135,0.0,0.0,50,0.00,,OVC043,0.75,VWS V14.01,2013-07-02 03:23:00,
2013-07-01 23:28:00,73.0,53.9,29.59,SE,146,0.0,0.0,51,0.00,,OVC043,0.83,VWS V14.01,2013-07-02 03:28:00,
2013-07-01 23:33:00,73.0,53.9,29.59,ESE,120,0.0,0.0,51,0.00,,OVC043,0.83,VWS V14.01,2013-07-02 03:33:00,
2013-07-01 23:38:00,73.0,53.9,29.59,ESE,120,0.0,0.0,51,0.00,,OVC043,0.83,VWS V14.01,2013-07-02 03:38:00,
2013-07-01 23:43:00,73.0,53.9,29.59,ESE,120,0.0,0.0,51,0.00,,OVC043,0.83,VWS V14.01,2013-07-02 03:43:00,
2013-07-01 23:48:00,73.0,53.9,29.59,ESE,122,0.0,0.0,51,0.00,,OVC043,0.75,VWS V14.01,2013-07-02 03:48:00,
2013-07-01 23:53:00,73.0,53.9,29.59,SSE,152,0.0,0.0,51,0.00,,OVC043,0.83,VWS V14.01,2013-07-02 03:53:00,
2013-07-01 23:58:00,73.0,53.9,29.59,SSE,152,0.0,0.0,51,0.00,,OVC043,0.83,VWS V14.01,2013-07-02 03:58:00,